Alanson, Michigan
Current Conditions -  °F | °C
As of 4:15 AM on Friday 31 Oct 2014 (Local Time) from KMGN Reporting Station
Drizzle Drizzle  
Wind Chill: 35°   Ceiling: 2500
Heat Index: 38°   Visibility: 10mi
Dew Point: 36°   Wind: 5mph
Humidity: 91%   Direction: 10°N
Pressure: 29.9"   Gusts: NA
Location:  45.44°N, 84.79°W
Report Text: KMGN 310815Z AUTO 01004KT 10SM DZ SCT013 BKN025 OVC039 03/02 A2990 RMK AO2 T00350021
Loading
Personal Weather Stations






























Interactive Weather Map
Tropical Storm Tracking
New forecast layout! Learn more

10-Day Weather Forecast

Advertisements
Track Severe Weather on mobile